sensor_id;sensor_type;location;lat;lon;timestamp;temperature;humidity
18648;DHT22;9453;50.294;18.644;2023-02-22T05:01:15;3.90;99.90
18648;DHT22;9453;50.294;18.644;2023-02-22T05:03:42;3.80;99.90
18648;DHT22;9453;50.294;18.644;2023-02-22T05:06:09;3.80;99.90
18648;DHT22;9453;50.294;18.644;2023-02-22T05:08:37;3.70;99.90
18648;DHT22;9453;50.294;18.644;2023-02-22T05:11:05;3.70;99.90
18648;DHT22;9453;50.294;18.644;2023-02-22T05:13:32;3.70;99.90
18648;DHT22;9453;50.294;18.644;2023-02-22T05:15:58;3.70;99.90
18648;DHT22;9453;50.294;18.644;2023-02-22T05:18:27;3.60;99.90
18648;DHT22;9453;50.294;18.644;2023-02-22T05:20:54;3.60;99.90
18648;DHT22;9453;50.294;18.644;2023-02-22T05:23:21;3.50;99.90
18648;DHT22;9453;50.294;18.644;2023-02-22T05:25:48;3.50;99.90
18648;DHT22;9453;50.294;18.644;2023-02-22T05:28:16;3.50;99.90
18648;DHT22;9453;50.294;18.644;2023-02-22T05:30:43;3.50;99.90
18648;DHT22;9453;50.294;18.644;2023-02-22T05:33:10;3.60;99.90
18648;DHT22;9453;50.294;18.644;2023-02-22T05:35:39;3.50;99.90
18648;DHT22;9453;50.294;18.644;2023-02-22T05:38:06;3.50;99.90
18648;DHT22;9453;50.294;18.644;2023-02-22T05:40:33;3.40;99.90
18648;DHT22;9453;50.294;18.644;2023-02-22T05:43:01;3.40;99.90
18648;DHT22;9453;50.294;18.644;2023-02-22T05:45:28;3.40;99.90
18648;DHT22;9453;50.294;18.644;2023-02-22T05:47:57;3.60;99.90
18648;DHT22;9453;50.294;18.644;2023-02-22T05:50:25;3.60;99.90
18648;DHT22;9453;50.294;18.644;2023-02-22T05:52:54;3.60;99.90
18648;DHT22;9453;50.294;18.644;2023-02-22T05:55:22;3.70;99.90
18648;DHT22;9453;50.294;18.644;2023-02-22T05:57:50;3.80;99.90
18648;DHT22;9453;50.294;18.644;2023-02-22T06:00:20;3.90;99.90
18648;DHT22;9453;50.294;18.644;2023-02-22T06:02:55;3.90;99.90
18648;DHT22;9453;50.294;18.644;2023-02-22T06:05:23;4.00;99.90
18648;DHT22;9453;50.294;18.644;2023-02-22T06:07:50;3.80;99.90
18648;DHT22;9453;50.294;18.644;2023-02-22T06:10:20;4.00;99.90
18648;DHT22;9453;50.294;18.644;2023-02-22T06:12:47;4.10;99.90
18648;DHT22;9453;50.294;18.644;2023-02-22T06:15:14;4.20;99.90
18648;DHT22;9453;50.294;18.644;2023-02-22T06:17:42;4.30;99.90
18648;DHT22;9453;50.294;18.644;2023-02-22T06:20:11;4.30;99.90
18648;DHT22;9453;50.294;18.644;2023-02-22T06:22:38;4.40;99.90
18648;DHT22;9453;50.294;18.644;2023-02-22T06:25:07;4.40;99.90
18648;DHT22;9453;50.294;18.644;2023-02-22T06:27:35;4.50;99.90
18648;DHT22;9453;50.294;18.644;2023-02-22T06:30:03;4.60;99.90
18648;DHT22;9453;50.294;18.644;2023-02-22T06:32:32;4.60;99.90
18648;DHT22;9453;50.294;18.644;2023-02-22T06:34:58;4.60;99.90
18648;DHT22;9453;50.294;18.644;2023-02-22T06:37:27;4.70;99.90
18648;DHT22;9453;50.294;18.644;2023-02-22T06:39:54;4.70;99.90
18648;DHT22;9453;50.294;18.644;2023-02-22T06:42:21;4.80;99.90
18648;DHT22;9453;50.294;18.644;2023-02-22T06:44:51;4.90;99.90
18648;DHT22;9453;50.294;18.644;2023-02-22T06:47:21;5.00;99.90
18648;DHT22;9453;50.294;18.644;2023-02-22T06:49:51;5.00;99.90
18648;DHT22;9453;50.294;18.644;2023-02-22T06:52:19;5.00;99.90
18648;DHT22;9453;50.294;18.644;2023-02-22T06:54:47;5.00;99.90
18648;DHT22;9453;50.294;18.644;2023-02-22T06:57:15;5.00;99.90
18648;DHT22;9453;50.294;18.644;2023-02-22T06:59:42;5.00;99.90
18648;DHT22;9453;50.294;18.644;2023-02-22T07:02:11;5.00;99.90
18648;DHT22;9453;50.294;18.644;2023-02-22T07:04:39;5.10;99.90
18648;DHT22;9453;50.294;18.644;2023-02-22T07:07:06;5.10;99.90
18648;DHT22;9453;50.294;18.644;2023-02-22T07:09:33;5.10;99.90
18648;DHT22;9453;50.294;18.644;2023-02-22T07:12:01;5.20;99.90
18648;DHT22;9453;50.294;18.644;2023-02-22T07:14:27;5.30;99.90
18648;DHT22;9453;50.294;18.644;2023-02-22T07:16:55;5.30;99.90
18648;DHT22;9453;50.294;18.644;2023-02-22T07:19:23;5.40;99.90
18648;DHT22;9453;50.294;18.644;2023-02-22T07:21:50;5.50;99.90
18648;DHT22;9453;50.294;18.644;2023-02-22T07:24:24;5.60;99.90
18648;DHT22;9453;50.294;18.644;2023-02-22T07:26:52;5.60;99.90
18648;DHT22;9453;50.294;18.644;2023-02-22T07:29:20;5.70;99.90
18648;DHT22;9453;50.294;18.644;2023-02-22T07:31:48;5.70;99.90
18648;DHT22;9453;50.294;18.644;2023-02-22T07:34:15;5.80;99.90
18648;DHT22;9453;50.294;18.644;2023-02-22T07:36:44;5.90;99.90
18648;DHT22;9453;50.294;18.644;2023-02-22T07:39:11;6.00;99.90
18648;DHT22;9453;50.294;18.644;2023-02-22T07:41:38;6.10;99.90
18648;DHT22;9453;50.294;18.644;2023-02-22T07:44:05;6.20;99.90
18648;DHT22;9453;50.294;18.644;2023-02-22T07:46:32;6.40;99.90
18648;DHT22;9453;50.294;18.644;2023-02-22T07:49:01;6.40;99.90
18648;DHT22;9453;50.294;18.644;2023-02-22T07:51:29;6.50;99.90
18648;DHT22;9453;50.294;18.644;2023-02-22T07:53:57;6.40;99.90
18648;DHT22;9453;50.294;18.644;2023-02-22T07:56:24;6.50;99.90
18648;DHT22;9453;50.294;18.644;2023-02-22T07:58:51;6.40;99.90
18648;DHT22;9453;50.294;18.644;2023-02-22T08:01:19;6.50;99.90
18648;DHT22;9453;50.294;18.644;2023-02-22T08:03:46;6.50;99.90
18648;DHT22;9453;50.294;18.644;2023-02-22T08:06:13;6.50;99.90
18648;DHT22;9453;50.294;18.644;2023-02-22T08:08:41;6.50;99.90
18648;DHT22;9453;50.294;18.644;2023-02-22T08:11:10;6.30;99.90
18648;DHT22;9453;50.294;18.644;2023-02-22T08:13:37;6.00;99.90
18648;DHT22;9453;50.294;18.644;2023-02-22T08:16:04;6.20;99.90
18648;DHT22;9453;50.294;18.644;2023-02-22T08:18:32;6.40;99.90
18648;DHT22;9453;50.294;18.644;2023-02-22T08:21:00;6.40;99.90
18648;DHT22;9453;50.294;18.644;2023-02-22T08:23:27;6.50;99.90
18648;DHT22;9453;50.294;18.644;2023-02-22T08:25:55;6.50;99.90
18648;DHT22;9453;50.294;18.644;2023-02-22T08:28:23;6.70;99.90
18648;DHT22;9453;50.294;18.644;2023-02-22T08:30:51;6.90;99.90
18648;DHT22;9453;50.294;18.644;2023-02-22T08:33:19;7.10;99.90
18648;DHT22;9453;50.294;18.644;2023-02-22T08:35:47;7.20;99.90
18648;DHT22;9453;50.294;18.644;2023-02-22T08:38:18;7.40;99.90
18648;DHT22;9453;50.294;18.644;2023-02-22T08:40:47;7.50;99.90
18648;DHT22;9453;50.294;18.644;2023-02-22T08:43:14;7.60;99.90
18648;DHT22;9453;50.294;18.644;2023-02-22T08:45:43;7.80;99.90
18648;DHT22;9453;50.294;18.644;2023-02-22T08:48:11;7.80;99.90
18648;DHT22;9453;50.294;18.644;2023-02-22T08:50:39;8.00;99.90
18648;DHT22;9453;50.294;18.644;2023-02-22T08:53:09;8.00;99.90
18648;DHT22;9453;50.294;18.644;2023-02-22T08:55:38;8.00;99.90
18648;DHT22;9453;50.294;18.644;2023-02-22T08:58:06;8.10;99.90
18648;DHT22;9453;50.294;18.644;2023-02-22T09:00:37;8.10;99.90
18648;DHT22;9453;50.294;18.644;2023-02-22T09:03:11;8.00;99.90
18648;DHT22;9453;50.294;18.644;2023-02-22T09:05:39;8.10;99.90
18648;DHT22;9453;50.294;18.644;2023-02-22T09:08:06;8.10;99.90
18648;DHT22;9453;50.294;18.644;2023-02-22T09:10:34;8.10;99.90
18648;DHT22;9453;50.294;18.644;2023-02-22T09:13:02;8.20;99.90
18648;DHT22;9453;50.294;18.644;2023-02-22T09:15:30;8.30;99.90
18648;DHT22;9453;50.294;18.644;2023-02-22T09:17:59;8.40;99.90
18648;DHT22;9453;50.294;18.644;2023-02-22T09:20:28;8.40;99.90
18648;DHT22;9453;50.294;18.644;2023-02-22T09:22:56;8.50;99.90
18648;DHT22;9453;50.294;18.644;2023-02-22T09:25:24;8.50;99.90
18648;DHT22;9453;50.294;18.644;2023-02-22T09:27:52;8.70;99.90
18648;DHT22;9453;50.294;18.644;2023-02-22T09:30:24;8.70;99.90
18648;DHT22;9453;50.294;18.644;2023-02-22T09:32:58;8.80;99.90
18648;DHT22;9453;50.294;18.644;2023-02-22T09:35:28;8.80;98.20
18648;DHT22;9453;50.294;18.644;2023-02-22T09:37:56;8.80;97.90
18648;DHT22;9453;50.294;18.644;2023-02-22T09:40:25;8.90;96.80
18648;DHT22;9453;50.294;18.644;2023-02-22T09:43:11;9.00;97.10
18648;DHT22;9453;50.294;18.644;2023-02-22T09:45:51;9.00;96.80
18648;DHT22;9453;50.294;18.644;2023-02-22T09:48:23;9.10;95.70
18648;DHT22;9453;50.294;18.644;2023-02-22T09:50:57;9.00;95.20
18648;DHT22;9453;50.294;18.644;2023-02-22T09:53:31;9.00;94.40
18648;DHT22;9453;50.294;18.644;2023-02-22T09:58:32;9.30;94.70
18648;DHT22;9453;50.294;18.644;2023-02-22T10:01:11;9.10;94.30
18648;DHT22;9453;50.294;18.644;2023-02-22T10:03:48;9.00;94.40
18648;DHT22;9453;50.294;18.644;2023-02-22T10:06:19;9.10;94.90
18648;DHT22;9453;50.294;18.644;2023-02-22T10:08:48;9.20;95.20
18648;DHT22;9453;50.294;18.644;2023-02-22T10:11:27;9.20;95.30
18648;DHT22;9453;50.294;18.644;2023-02-22T10:14:08;9.30;94.80
18648;DHT22;9453;50.294;18.644;2023-02-22T10:16:47;9.50;94.60
18648;DHT22;9453;50.294;18.644;2023-02-22T10:19:23;9.60;94.60
18648;DHT22;9453;50.294;18.644;2023-02-22T10:22:01;9.80;94.40
18648;DHT22;9453;50.294;18.644;2023-02-22T10:24:41;9.90;93.50
18648;DHT22;9453;50.294;18.644;2023-02-22T10:27:16;10.10;91.90
18648;DHT22;9453;50.294;18.644;2023-02-22T10:29:47;10.30;91.10
18648;DHT22;9453;50.294;18.644;2023-02-22T10:32:19;10.50;90.60
18648;DHT22;9453;50.294;18.644;2023-02-22T10:34:49;10.60;90.00
18648;DHT22;9453;50.294;18.644;2023-02-22T10:37:33;10.70;90.10
18648;DHT22;9453;50.294;18.644;2023-02-22T10:40:10;10.60;87.60
18648;DHT22;9453;50.294;18.644;2023-02-22T10:42:38;9.90;87.50
18648;DHT22;9453;50.294;18.644;2023-02-22T10:45:13;9.90;89.20
18648;DHT22;9453;50.294;18.644;2023-02-22T10:47:46;9.70;89.80
18648;DHT22;9453;50.294;18.644;2023-02-22T10:50:14;9.90;89.80
18648;DHT22;9453;50.294;18.644;2023-02-22T10:52:43;10.00;83.30
18648;DHT22;9453;50.294;18.644;2023-02-22T10:55:12;9.90;85.10
18648;DHT22;9453;50.294;18.644;2023-02-22T10:57:42;10.00;84.60
18648;DHT22;9453;50.294;18.644;2023-02-22T11:00:15;10.00;82.20
18648;DHT22;9453;50.294;18.644;2023-02-22T11:02:53;9.70;81.60
18648;DHT22;9453;50.294;18.644;2023-02-22T11:05:32;9.70;82.30
18648;DHT22;9453;50.294;18.644;2023-02-22T11:08:18;9.90;83.70
18648;DHT22;9453;50.294;18.644;2023-02-22T11:10:49;10.00;81.80
18648;DHT22;9453;50.294;18.644;2023-02-22T11:13:18;9.90;78.30
18648;DHT22;9453;50.294;18.644;2023-02-22T11:15:50;9.80;77.80
18648;DHT22;9453;50.294;18.644;2023-02-22T11:18:24;9.50;77.30
18648;DHT22;9453;50.294;18.644;2023-02-22T11:20:59;9.40;79.20
18648;DHT22;9453;50.294;18.644;2023-02-22T11:23:29;9.50;78.90
18648;DHT22;9453;50.294;18.644;2023-02-22T11:26:03;9.80;80.00
18648;DHT22;9453;50.294;18.644;2023-02-22T11:28:32;10.00;78.20
18648;DHT22;9453;50.294;18.644;2023-02-22T11:31:10;10.10;76.90
18648;DHT22;9453;50.294;18.644;2023-02-22T11:33:39;10.20;76.20
18648;DHT22;9453;50.294;18.644;2023-02-22T11:36:11;10.20;76.30
18648;DHT22;9453;50.294;18.644;2023-02-22T11:38:56;10.20;76.70
18648;DHT22;9453;50.294;18.644;2023-02-22T11:41:26;10.10;75.20
18648;DHT22;9453;50.294;18.644;2023-02-22T11:44:12;10.10;75.90
18648;DHT22;9453;50.294;18.644;2023-02-22T11:46:40;9.90;77.10
18648;DHT22;9453;50.294;18.644;2023-02-22T11:49:10;9.90;77.90
18648;DHT22;9453;50.294;18.644;2023-02-22T11:51:47;10.00;76.60
18648;DHT22;9453;50.294;18.644;2023-02-22T11:54:27;9.90;76.90
18648;DHT22;9453;50.294;18.644;2023-02-22T11:57:06;9.90;77.20
18648;DHT22;9453;50.294;18.644;2023-02-22T11:59:37;10.00;75.70
18648;DHT22;9453;50.294;18.644;2023-02-22T12:02:28;9.60;75.90
18648;DHT22;9453;50.294;18.644;2023-02-22T12:05:07;9.40;78.00
18648;DHT22;9453;50.294;18.644;2023-02-22T12:07:46;9.50;77.00
18648;DHT22;9453;50.294;18.644;2023-02-22T12:10:25;9.70;77.90
18648;DHT22;9453;50.294;18.644;2023-02-22T12:13:08;10.00;75.50
18648;DHT22;9453;50.294;18.644;2023-02-22T12:15:44;9.60;74.30
18648;DHT22;9453;50.294;18.644;2023-02-22T12:18:16;9.50;75.40
18648;DHT22;9453;50.294;18.644;2023-02-22T12:20:52;9.50;76.00
18648;DHT22;9453;50.294;18.644;2023-02-22T12:23:24;9.50;76.20
18648;DHT22;9453;50.294;18.644;2023-02-22T12:26:01;9.50;77.10
18648;DHT22;9453;50.294;18.644;2023-02-22T12:28:33;9.50;76.30
18648;DHT22;9453;50.294;18.644;2023-02-22T12:31:13;9.80;76.50
18648;DHT22;9453;50.294;18.644;2023-02-22T12:33:47;10.00;75.40
18648;DHT22;9453;50.294;18.644;2023-02-22T12:36:18;10.30;74.70
18648;DHT22;9453;50.294;18.644;2023-02-22T12:38:51;10.50;74.10
18648;DHT22;9453;50.294;18.644;2023-02-22T12:41:29;10.60;72.90
18648;DHT22;9453;50.294;18.644;2023-02-22T12:44:01;10.70;72.40
18648;DHT22;9453;50.294;18.644;2023-02-22T12:46:33;10.80;72.20
18648;DHT22;9453;50.294;18.644;2023-02-22T12:49:07;10.80;71.20
18648;DHT22;9453;50.294;18.644;2023-02-22T12:51:43;10.90;71.20
18648;DHT22;9453;50.294;18.644;2023-02-22T12:54:15;10.90;70.40
18648;DHT22;9453;50.294;18.644;2023-02-22T12:56:49;10.60;69.40
18648;DHT22;9453;50.294;18.644;2023-02-22T12:59:24;10.70;70.00
18648;DHT22;9453;50.294;18.644;2023-02-22T13:01:57;10.50;70.80
18648;DHT22;9453;50.294;18.644;2023-02-22T13:04:26;10.00;71.80
18648;DHT22;9453;50.294;18.644;2023-02-22T13:07:16;10.00;71.80
18648;DHT22;9453;50.294;18.644;2023-02-22T13:10:20;9.70;73.60
18648;DHT22;9453;50.294;18.644;2023-02-22T13:12:56;9.70;73.60
18648;DHT22;9453;50.294;18.644;2023-02-22T13:15:36;9.50;74.30
18648;DHT22;9453;50.294;18.644;2023-02-22T13:18:15;9.60;75.10
18648;DHT22;9453;50.294;18.644;2023-02-22T13:20:46;9.60;75.30
18648;DHT22;9453;50.294;18.644;2023-02-22T13:23:23;9.80;75.40
18648;DHT22;9453;50.294;18.644;2023-02-22T13:26:03;9.50;76.70
18648;DHT22;9453;50.294;18.644;2023-02-22T13:28:37;9.40;77.50
18648;DHT22;9453;50.294;18.644;2023-02-22T13:31:29;9.40;77.50
18648;DHT22;9453;50.294;18.644;2023-02-22T13:37:10;9.40;77.90
18648;DHT22;9453;50.294;18.644;2023-02-22T13:40:11;9.50;77.80
18648;DHT22;9453;50.294;18.644;2023-02-22T13:43:12;9.80;78.20
18648;DHT22;9453;50.294;18.644;2023-02-22T13:46:23;9.90;77.50
18648;DHT22;9453;50.294;18.644;2023-02-22T13:49:17;10.10;75.40
18648;DHT22;9453;50.294;18.644;2023-02-22T13:51:48;10.10;74.00
18648;DHT22;9453;50.294;18.644;2023-02-22T13:54:23;9.80;76.00
18648;DHT22;9453;50.294;18.644;2023-02-22T13:56:55;9.70;76.90
18648;DHT22;9453;50.294;18.644;2023-02-22T13:59:28;9.70;76.70
18648;DHT22;9453;50.294;18.644;2023-02-22T14:01:59;9.60;77.50
18648;DHT22;9453;50.294;18.644;2023-02-22T14:04:38;9.60;79.20
18648;DHT22;9453;50.294;18.644;2023-02-22T14:10:45;9.30;78.50
18648;DHT22;9453;50.294;18.644;2023-02-22T14:13:15;9.30;79.40
18648;DHT22;9453;50.294;18.644;2023-02-22T14:16:16;9.20;79.30
18648;DHT22;9453;50.294;18.644;2023-02-22T14:18:47;9.10;79.20
18648;DHT22;9453;50.294;18.644;2023-02-22T14:21:17;9.10;79.90
18648;DHT22;9453;50.294;18.644;2023-02-22T14:23:46;9.10;79.20
18648;DHT22;9453;50.294;18.644;2023-02-22T14:26:16;9.20;79.30
18648;DHT22;9453;50.294;18.644;2023-02-22T14:28:52;9.10;79.20
18648;DHT22;9453;50.294;18.644;2023-02-22T14:31:22;9.10;79.20
18648;DHT22;9453;50.294;18.644;2023-02-22T14:33:57;9.10;79.30
18648;DHT22;9453;50.294;18.644;2023-02-22T14:36:31;9.20;80.30
18648;DHT22;9453;50.294;18.644;2023-02-22T14:39:19;9.30;79.40
18648;DHT22;9453;50.294;18.644;2023-02-22T14:41:52;9.40;79.50
18648;DHT22;9453;50.294;18.644;2023-02-22T14:44:25;9.50;79.50
18648;DHT22;9453;50.294;18.644;2023-02-22T14:46:57;9.50;78.20
18648;DHT22;9453;50.294;18.644;2023-02-22T14:49:31;9.50;77.70
18648;DHT22;9453;50.294;18.644;2023-02-22T14:52:05;9.40;78.10
18648;DHT22;9453;50.294;18.644;2023-02-22T14:54:39;9.50;79.40
18648;DHT22;9453;50.294;18.644;2023-02-22T14:57:19;9.70;78.70
18648;DHT22;9453;50.294;18.644;2023-02-22T15:00:00;9.80;77.50
18648;DHT22;9453;50.294;18.644;2023-02-22T15:02:39;9.60;76.70
18648;DHT22;9453;50.294;18.644;2023-02-22T15:05:12;9.30;78.20
18648;DHT22;9453;50.294;18.644;2023-02-22T15:07:49;9.20;78.30
18648;DHT22;9453;50.294;18.644;2023-02-22T15:10:21;9.00;78.10
18648;DHT22;9453;50.294;18.644;2023-02-22T15:12:51;8.90;78.90
18648;DHT22;9453;50.294;18.644;2023-02-22T15:15:21;8.80;78.90
18648;DHT22;9453;50.294;18.644;2023-02-22T15:17:53;8.60;78.70
18648;DHT22;9453;50.294;18.644;2023-02-22T15:20:22;8.50;79.00
18648;DHT22;9453;50.294;18.644;2023-02-22T15:22:51;8.30;79.40
18648;DHT22;9453;50.294;18.644;2023-02-22T15:25:26;8.30;80.10
18648;DHT22;9453;50.294;18.644;2023-02-22T15:27:59;8.30;80.40
18648;DHT22;9453;50.294;18.644;2023-02-22T15:30:29;8.20;80.50
18648;DHT22;9453;50.294;18.644;2023-02-22T15:33:09;8.20;80.80
18648;DHT22;9453;50.294;18.644;2023-02-22T15:35:38;8.10;81.10
18648;DHT22;9453;50.294;18.644;2023-02-22T15:38:14;8.00;81.20
18648;DHT22;9453;50.294;18.644;2023-02-22T15:40:44;8.00;81.60
18648;DHT22;9453;50.294;18.644;2023-02-22T15:43:18;7.90;82.00
18648;DHT22;9453;50.294;18.644;2023-02-22T15:45:48;7.80;82.00
18648;DHT22;9453;50.294;18.644;2023-02-22T15:48:16;7.80;82.20
18648;DHT22;9453;50.294;18.644;2023-02-22T15:51:00;7.70;82.60
18648;DHT22;9453;50.294;18.644;2023-02-22T15:53:37;7.60;84.10
18648;DHT22;9453;50.294;18.644;2023-02-22T15:56:15;7.50;83.90
18648;DHT22;9453;50.294;18.644;2023-02-22T15:58:45;7.50;84.30
18648;DHT22;9453;50.294;18.644;2023-02-22T16:01:14;7.30;84.20
18648;DHT22;9453;50.294;18.644;2023-02-22T16:03:45;7.20;84.40
18648;DHT22;9453;50.294;18.644;2023-02-22T16:06:21;7.20;85.70
18648;DHT22;9453;50.294;18.644;2023-02-22T16:08:53;7.10;85.70
18648;DHT22;9453;50.294;18.644;2023-02-22T16:11:23;7.00;86.40
18648;DHT22;9453;50.294;18.644;2023-02-22T16:13:56;6.90;86.90
18648;DHT22;9453;50.294;18.644;2023-02-22T16:16:28;6.80;87.50
18648;DHT22;9453;50.294;18.644;2023-02-22T16:19:21;6.80;88.00
18648;DHT22;9453;50.294;18.644;2023-02-22T16:21:53;6.70;88.50
18648;DHT22;9453;50.294;18.644;2023-02-22T16:24:26;6.70;88.70
18648;DHT22;9453;50.294;18.644;2023-02-22T16:27:13;6.70;88.80
18648;DHT22;9453;50.294;18.644;2023-02-22T16:29:41;6.70;88.70
18648;DHT22;9453;50.294;18.644;2023-02-22T16:32:08;6.60;88.70
18648;DHT22;9453;50.294;18.644;2023-02-22T16:34:36;6.60;89.10
18648;DHT22;9453;50.294;18.644;2023-02-22T16:37:18;6.60;89.40
18648;DHT22;9453;50.294;18.644;2023-02-22T16:39:51;6.50;89.60
18648;DHT22;9453;50.294;18.644;2023-02-22T16:42:19;6.60;90.00
18648;DHT22;9453;50.294;18.644;2023-02-22T16:44:51;6.40;90.10
18648;DHT22;9453;50.294;18.644;2023-02-22T16:47:19;6.40;90.20
18648;DHT22;9453;50.294;18.644;2023-02-22T16:49:48;6.30;90.60
18648;DHT22;9453;50.294;18.644;2023-02-22T16:52:19;6.30;90.80
18648;DHT22;9453;50.294;18.644;2023-02-22T16:54:47;6.20;91.00
18648;DHT22;9453;50.294;18.644;2023-02-22T16:57:17;6.20;91.10
18648;DHT22;9453;50.294;18.644;2023-02-22T16:59:45;6.20;91.20
18648;DHT22;9453;50.294;18.644;2023-02-22T17:02:17;6.10;91.20
18648;DHT22;9453;50.294;18.644;2023-02-22T17:04:44;6.10;91.30
18648;DHT22;9453;50.294;18.644;2023-02-22T17:07:17;6.10;91.30
18648;DHT22;9453;50.294;18.644;2023-02-22T17:09:45;6.10;91.50
18648;DHT22;9453;50.294;18.644;2023-02-22T17:12:12;6.00;91.40
18648;DHT22;9453;50.294;18.644;2023-02-22T17:14:43;6.00;91.20
18648;DHT22;9453;50.294;18.644;2023-02-22T17:17:11;6.00;91.30
18648;DHT22;9453;50.294;18.644;2023-02-22T17:19:39;6.00;91.20
18648;DHT22;9453;50.294;18.644;2023-02-22T17:22:16;5.90;91.20
18648;DHT22;9453;50.294;18.644;2023-02-22T17:24:45;5.90;91.00
18648;DHT22;9453;50.294;18.644;2023-02-22T17:27:13;5.90;91.10
18648;DHT22;9453;50.294;18.644;2023-02-22T17:29:40;5.90;90.90
18648;DHT22;9453;50.294;18.644;2023-02-22T17:32:09;5.80;90.70
18648;DHT22;9453;50.294;18.644;2023-02-22T17:34:38;5.80;90.70
18648;DHT22;9453;50.294;18.644;2023-02-22T17:37:05;5.80;90.70
18648;DHT22;9453;50.294;18.644;2023-02-22T17:39:32;5.80;90.80
18648;DHT22;9453;50.294;18.644;2023-02-22T17:42:03;5.70;90.70
18648;DHT22;9453;50.294;18.644;2023-02-22T17:44:32;5.60;90.80
18648;DHT22;9453;50.294;18.644;2023-02-22T17:46:59;5.60;90.80
18648;DHT22;9453;50.294;18.644;2023-02-22T17:49:27;5.60;90.70
18648;DHT22;9453;50.294;18.644;2023-02-22T17:51:54;5.50;90.80
18648;DHT22;9453;50.294;18.644;2023-02-22T17:54:21;5.50;90.80
18648;DHT22;9453;50.294;18.644;2023-02-22T17:56:49;5.50;90.80
18648;DHT22;9453;50.294;18.644;2023-02-22T17:59:17;5.50;90.90
18648;DHT22;9453;50.294;18.644;2023-02-22T18:01:44;5.40;90.80
18648;DHT22;9453;50.294;18.644;2023-02-22T18:04:12;5.40;91.00
18648;DHT22;9453;50.294;18.644;2023-02-22T18:06:39;5.40;91.00
18648;DHT22;9453;50.294;18.644;2023-02-22T18:09:07;5.30;90.90
18648;DHT22;9453;50.294;18.644;2023-02-22T18:11:37;5.40;91.00
18648;DHT22;9453;50.294;18.644;2023-02-22T18:14:05;5.40;91.00
18648;DHT22;9453;50.294;18.644;2023-02-22T18:16:36;5.50;91.00
18648;DHT22;9453;50.294;18.644;2023-02-22T18:19:04;5.60;91.10
18648;DHT22;9453;50.294;18.644;2023-02-22T18:21:31;5.70;91.10
18648;DHT22;9453;50.294;18.644;2023-02-22T18:23:58;5.70;91.10
18648;DHT22;9453;50.294;18.644;2023-02-22T18:26:27;5.80;91.20
18648;DHT22;9453;50.294;18.644;2023-02-22T18:28:54;5.90;91.10
18648;DHT22;9453;50.294;18.644;2023-02-22T18:31:22;5.90;91.00
18648;DHT22;9453;50.294;18.644;2023-02-22T18:33:51;6.10;91.00
18648;DHT22;9453;50.294;18.644;2023-02-22T18:36:21;6.10;90.90
18648;DHT22;9453;50.294;18.644;2023-02-22T18:38:49;6.10;91.00
18648;DHT22;9453;50.294;18.644;2023-02-22T18:41:18;6.10;91.20
18648;DHT22;9453;50.294;18.644;2023-02-22T18:43:59;6.20;91.20
18648;DHT22;9453;50.294;18.644;2023-02-22T18:46:27;6.20;91.00
18648;DHT22;9453;50.294;18.644;2023-02-22T18:48:56;6.20;91.20
18648;DHT22;9453;50.294;18.644;2023-02-22T18:51:24;6.20;91.30
18648;DHT22;9453;50.294;18.644;2023-02-22T18:53:54;6.30;91.30
18648;DHT22;9453;50.294;18.644;2023-02-22T18:56:25;6.30;91.20
18648;DHT22;9453;50.294;18.644;2023-02-22T19:04:09;6.30;90.80
18648;DHT22;9453;50.294;18.644;2023-02-22T19:06:38;6.20;90.60
18648;DHT22;9453;50.294;18.644;2023-02-22T19:09:05;6.30;90.70
18648;DHT22;9453;50.294;18.644;2023-02-22T19:11:34;6.30;90.60
18648;DHT22;9453;50.294;18.644;2023-02-22T19:14:01;6.30;90.50
18648;DHT22;9453;50.294;18.644;2023-02-22T19:16:30;6.20;90.10
18648;DHT22;9453;50.294;18.644;2023-02-22T19:18:58;6.20;90.10
18648;DHT22;9453;50.294;18.644;2023-02-22T19:21:33;6.20;90.00
18648;DHT22;9453;50.294;18.644;2023-02-22T19:24:10;6.20;90.10
18648;DHT22;9453;50.294;18.644;2023-02-22T19:26:38;6.20;90.00
18648;DHT22;9453;50.294;18.644;2023-02-22T19:29:15;6.10;89.80
18648;DHT22;9453;50.294;18.644;2023-02-22T19:31:42;6.10;90.00
18648;DHT22;9453;50.294;18.644;2023-02-22T19:34:11;6.20;90.00
18648;DHT22;9453;50.294;18.644;2023-02-22T19:36:46;6.20;90.10
18648;DHT22;9453;50.294;18.644;2023-02-22T19:39:14;6.20;90.00
18648;DHT22;9453;50.294;18.644;2023-02-22T19:41:42;6.20;90.10
18648;DHT22;9453;50.294;18.644;2023-02-22T19:44:09;6.20;90.40
18648;DHT22;9453;50.294;18.644;2023-02-22T19:46:37;6.20;90.10
18648;DHT22;9453;50.294;18.644;2023-02-22T19:49:06;6.30;90.00
18648;DHT22;9453;50.294;18.644;2023-02-22T19:51:33;6.30;89.60
18648;DHT22;9453;50.294;18.644;2023-02-22T19:54:04;6.30;89.10
18648;DHT22;9453;50.294;18.644;2023-02-22T19:56:32;6.20;89.20
18648;DHT22;9453;50.294;18.644;2023-02-22T19:59:02;6.20;89.70
18648;DHT22;9453;50.294;18.644;2023-02-22T20:01:35;6.20;89.80
18648;DHT22;9453;50.294;18.644;2023-02-22T20:04:05;6.10;89.80
18648;DHT22;9453;50.294;18.644;2023-02-22T20:06:35;6.10;90.00
18648;DHT22;9453;50.294;18.644;2023-02-22T20:09:06;6.10;90.00
18648;DHT22;9453;50.294;18.644;2023-02-22T20:11:33;6.10;90.30
18648;DHT22;9453;50.294;18.644;2023-02-22T20:14:01;6.00;90.30
18648;DHT22;9453;50.294;18.644;2023-02-22T20:16:31;6.00;90.30
18648;DHT22;9453;50.294;18.644;2023-02-22T20:18:58;5.90;90.20
18648;DHT22;9453;50.294;18.644;2023-02-22T20:21:28;5.90;90.40
18648;DHT22;9453;50.294;18.644;2023-02-22T20:23:57;5.80;90.90
18648;DHT22;9453;50.294;18.644;2023-02-22T20:26:26;5.60;91.10
18648;DHT22;9453;50.294;18.644;2023-02-22T20:28:54;5.50;91.80
18648;DHT22;9453;50.294;18.644;2023-02-22T20:31:22;5.20;91.90
18648;DHT22;9453;50.294;18.644;2023-02-22T20:33:53;5.10;92.30
18648;DHT22;9453;50.294;18.644;2023-02-22T20:36:21;4.90;92.40
18648;DHT22;9453;50.294;18.644;2023-02-22T20:38:51;4.80;92.50
18648;DHT22;9453;50.294;18.644;2023-02-22T20:41:21;4.70;92.90
18648;DHT22;9453;50.294;18.644;2023-02-22T20:43:51;4.50;93.10
18648;DHT22;9453;50.294;18.644;2023-02-22T20:46:20;4.50;93.40
18648;DHT22;9453;50.294;18.644;2023-02-22T20:48:48;4.30;93.60
18648;DHT22;9453;50.294;18.644;2023-02-22T20:51:15;4.20;93.80
18648;DHT22;9453;50.294;18.644;2023-02-22T20:53:42;4.20;93.90
18648;DHT22;9453;50.294;18.644;2023-02-22T20:56:12;4.30;94.10
18648;DHT22;9453;50.294;18.644;2023-02-22T20:58:39;4.30;94.10
18648;DHT22;9453;50.294;18.644;2023-02-22T21:01:10;4.30;94.10
18648;DHT22;9453;50.294;18.644;2023-02-22T21:03:39;4.30;93.90
18648;DHT22;9453;50.294;18.644;2023-02-22T21:06:07;4.30;93.90
18648;DHT22;9453;50.294;18.644;2023-02-22T21:08:36;4.30;93.90
18648;DHT22;9453;50.294;18.644;2023-02-22T21:11:09;4.30;93.80
18648;DHT22;9453;50.294;18.644;2023-02-22T21:13:36;4.20;93.90
18648;DHT22;9453;50.294;18.644;2023-02-22T21:16:04;4.30;93.90
18648;DHT22;9453;50.294;18.644;2023-02-22T21:18:33;4.30;93.70
18648;DHT22;9453;50.294;18.644;2023-02-22T21:21:01;4.30;93.60
18648;DHT22;9453;50.294;18.644;2023-02-22T21:23:35;4.40;93.60
18648;DHT22;9453;50.294;18.644;2023-02-22T21:26:03;4.40;93.30